Time;durP1;ratioP1;P1;durP2;ratioP2;P2;SDS_P1;SDS_P2;PMS_P1;PMS_P2;Temp;Humidity;BMP_temperature;BMP_pressure;BME280_temperature;BME280_humidity;BME280_pressure;Samples;Min_cycle;Max_cycle;Signal;HPM_P1;HPM_P2
2021/12/18 00:00:09;;;;;;;38.47;16.95;;;;;;;;;;5029705;28;20080;-67
2021/12/18 00:02:34;;;;;;;45.72;19.67;;;;;;;;;;5030334;28;20017;-66
2021/12/18 00:04:59;;;;;;;48.28;19.95;;;;;;;;;;5030137;28;20029;-66
2021/12/18 00:07:25;;;;;;;41.63;18.33;;;;;;;;;;5028619;28;20087;-66
2021/12/18 00:09:52;;;;;;;46.45;17.48;;;;;;;;;;5029806;28;20069;-66
2021/12/18 00:12:17;;;;;;;41.30;14.85;;;;;;;;;;5029648;28;20374;-66
2021/12/18 00:14:43;;;;;;;46.95;18.42;;;;;;;;;;5030191;28;20021;-66
2021/12/18 00:17:08;;;;;;;48.10;18.73;;;;;;;;;;5029841;28;20021;-66
2021/12/18 00:19:34;;;;;;;40.67;17.45;;;;;;;;;;5030296;28;20069;-66
2021/12/18 00:22:00;;;;;;;38.67;17.17;;;;;;;;;;5029564;28;20018;-66
2021/12/18 00:24:25;;;;;;;40.25;18.33;;;;;;;;;;5029983;28;20017;-66
2021/12/18 00:26:50;;;;;;;37.03;15.25;;;;;;;;;;5030233;28;20021;-66
2021/12/18 00:29:15;;;;;;;41.63;17.67;;;;;;;;;;5012317;28;20526;-66
2021/12/18 00:31:41;;;;;;;42.67;17.20;;;;;;;;;;5029878;28;20025;-65
2021/12/18 00:34:06;;;;;;;44.35;16.92;;;;;;;;;;5028756;28;20024;-65
2021/12/18 00:36:31;;;;;;;39.33;16.83;;;;;;;;;;5045431;28;20025;-65
2021/12/18 00:38:56;;;;;;;41.03;17.15;;;;;;;;;;5047854;28;20021;-65
2021/12/18 00:41:47;;;;;;;44.55;17.73;;;;;;;;;;5029835;28;20040;-65
2021/12/18 00:44:13;;;;;;;46.72;16.58;;;;;;;;;;5030149;28;20025;-65
2021/12/18 00:46:45;;;;;;;47.17;19.25;;;;;;;;;;5012503;28;20390;-66
2021/12/18 00:49:12;;;;;;;46.78;18.30;;;;;;;;;;5030014;28;20025;-65
2021/12/18 00:51:37;;;;;;;47.15;20.02;;;;;;;;;;5035658;28;20059;-67
2021/12/18 00:54:03;;;;;;;47.45;18.83;;;;;;;;;;5049866;28;20025;-65
2021/12/18 00:56:28;;;;;;;42.53;18.30;;;;;;;;;;5050070;28;20046;-65
2021/12/18 00:58:53;;;;;;;45.85;18.23;;;;;;;;;;5063149;22;20072;-67
2021/12/18 01:01:20;;;;;;;41.70;17.55;;;;;;;;;;5049402;28;20052;-67
2021/12/18 01:03:47;;;;;;;43.60;18.58;;;;;;;;;;5056044;28;20471;-67
2021/12/18 01:06:12;;;;;;;41.88;18.90;;;;;;;;;;5073356;28;20055;-66
2021/12/18 01:08:38;;;;;;;48.72;18.85;;;;;;;;;;5055328;28;20052;-67
2021/12/18 01:13:44;;;;;;;41.47;17.35;;;;;;;;;;5073283;28;20028;-66
2021/12/18 01:16:17;;;;;;;49.55;18.77;;;;;;;;;;5064429;28;20381;-66
2021/12/18 01:24:10;;;;;;;43.13;17.88;;;;;;;;;;5053103;28;20028;-67
2021/12/18 01:26:35;;;;;;;47.03;19.90;;;;;;;;;;5052624;28;20025;-67
2021/12/18 01:29:00;;;;;;;49.22;19.13;;;;;;;;;;5052550;28;20052;-67
2021/12/18 01:31:26;;;;;;;46.20;18.88;;;;;;;;;;5051846;28;20033;-67
2021/12/18 01:33:51;;;;;;;42.80;16.40;;;;;;;;;;5052756;28;20020;-66
2021/12/18 01:36:16;;;;;;;44.78;16.33;;;;;;;;;;5052967;28;20024;-67
2021/12/18 01:38:41;;;;;;;38.60;16.10;;;;;;;;;;5052371;28;20036;-67
2021/12/18 01:41:06;;;;;;;51.38;17.00;;;;;;;;;;5052526;28;20033;-67
2021/12/18 01:46:35;;;;;;;47.67;17.73;;;;;;;;;;5051518;28;20036;-67
2021/12/18 01:51:58;;;;;;;49.80;17.63;;;;;;;;;;5052234;28;20047;-67
2021/12/18 01:54:23;;;;;;;36.78;17.52;;;;;;;;;;5072494;28;20020;-66
2021/12/18 01:56:49;;;;;;;39.67;17.23;;;;;;;;;;5072390;28;20393;-67
2021/12/18 01:59:14;;;;;;;47.05;18.20;;;;;;;;;;5040515;28;20074;-67
2021/12/18 02:01:39;;;;;;;43.53;18.63;;;;;;;;;;5031831;28;20044;-67
2021/12/18 02:04:04;;;;;;;50.05;19.52;;;;;;;;;;5042161;28;20472;-67
2021/12/18 02:06:29;;;;;;;43.28;17.15;;;;;;;;;;5051989;28;20025;-67
2021/12/18 02:08:55;;;;;;;48.80;18.27;;;;;;;;;;5051921;28;20032;-67
2021/12/18 02:14:19;;;;;;;40.88;16.27;;;;;;;;;;5051348;28;20016;-67
2021/12/18 02:22:13;;;;;;;41.70;16.92;;;;;;;;;;5051714;28;20066;-67
2021/12/18 02:24:38;;;;;;;39.20;15.55;;;;;;;;;;5051857;28;20104;-67
2021/12/18 02:27:03;;;;;;;44.92;15.90;;;;;;;;;;5052012;28;20051;-67
2021/12/18 02:29:33;;;;;;;46.03;17.25;;;;;;;;;;5051818;28;20021;-67
2021/12/18 02:31:59;;;;;;;43.10;16.80;;;;;;;;;;5051069;28;20021;-67
2021/12/18 02:34:29;;;;;;;43.58;17.95;;;;;;;;;;5051448;28;20028;-67
2021/12/18 02:37:00;;;;;;;45.60;18.27;;;;;;;;;;5050017;28;20013;-67
2021/12/18 02:39:43;;;;;;;50.85;19.02;;;;;;;;;;5050952;28;20083;-67
2021/12/18 02:42:11;;;;;;;50.17;19.52;;;;;;;;;;5050815;28;20021;-67
2021/12/18 02:44:39;;;;;;;58.13;20.70;;;;;;;;;;5051428;28;20029;-67
2021/12/18 02:47:04;;;;;;;48.47;20.10;;;;;;;;;;5051387;28;20055;-66
2021/12/18 02:49:30;;;;;;;44.78;17.42;;;;;;;;;;5051080;28;20021;-67
2021/12/18 02:51:55;;;;;;;51.83;19.65;;;;;;;;;;5051097;28;20054;-67
2021/12/18 02:54:20;;;;;;;40.75;16.10;;;;;;;;;;5068926;28;20017;-67
2021/12/18 02:56:45;;;;;;;50.80;18.83;;;;;;;;;;5051259;28;20013;-67
2021/12/18 02:59:11;;;;;;;48.03;18.63;;;;;;;;;;5050917;28;20427;-67
2021/12/18 03:01:37;;;;;;;52.10;19.73;;;;;;;;;;5050896;28;20036;-66
2021/12/18 03:04:12;;;;;;;45.95;16.88;;;;;;;;;;5051061;28;20056;-66
2021/12/18 03:06:42;;;;;;;56.22;19.52;;;;;;;;;;5051035;28;20027;-67
2021/12/18 03:25:09;;;;;;;50.15;20.10;;;;;;;;;;5050726;28;20104;-67
2021/12/18 03:27:35;;;;;;;46.53;21.50;;;;;;;;;;5031661;28;20025;-68
2021/12/18 03:30:00;;;;;;;53.88;20.55;;;;;;;;;;5050534;28;20021;-67
2021/12/18 03:32:26;;;;;;;50.53;19.60;;;;;;;;;;5050482;28;20488;-67
2021/12/18 03:34:51;;;;;;;60.40;22.52;;;;;;;;;;5050539;28;20259;-67
2021/12/18 03:37:17;;;;;;;54.25;21.13;;;;;;;;;;5049996;28;20079;-66
2021/12/18 03:39:45;;;;;;;56.67;23.20;;;;;;;;;;5050507;28;20020;-67
2021/12/18 03:42:10;;;;;;;57.95;21.73;;;;;;;;;;5050176;28;20428;-67
2021/12/18 03:44:35;;;;;;;60.78;22.50;;;;;;;;;;5050014;28;20025;-67
2021/12/18 03:47:00;;;;;;;54.78;20.58;;;;;;;;;;5050334;28;20024;-67
2021/12/18 03:49:26;;;;;;;62.03;23.70;;;;;;;;;;5032272;28;20025;-67
2021/12/18 03:51:51;;;;;;;63.45;22.70;;;;;;;;;;5050012;28;20187;-67
2021/12/18 03:54:16;;;;;;;71.78;25.75;;;;;;;;;;5050236;28;20469;-67
2021/12/18 03:56:41;;;;;;;65.13;23.38;;;;;;;;;;5050535;28;20074;-67
2021/12/18 03:59:07;;;;;;;68.40;24.55;;;;;;;;;;5050398;28;20025;-67
2021/12/18 04:01:32;;;;;;;61.53;22.80;;;;;;;;;;5049072;28;20051;-68
2021/12/18 04:03:57;;;;;;;66.65;24.33;;;;;;;;;;5032125;28;20477;-67
2021/12/18 04:06:22;;;;;;;62.47;21.75;;;;;;;;;;5050372;28;20075;-66
2021/12/18 04:08:47;;;;;;;70.47;23.20;;;;;;;;;;5050048;28;20481;-67
2021/12/18 04:11:13;;;;;;;64.15;23.67;;;;;;;;;;5049258;28;20067;-67
2021/12/18 04:13:43;;;;;;;63.85;18.60;;;;;;;;;;5049776;28;20017;-67
2021/12/18 04:16:08;;;;;;;56.70;20.42;;;;;;;;;;5050132;28;20052;-67
2021/12/18 04:18:34;;;;;;;62.60;21.20;;;;;;;;;;5049370;28;20053;-67
2021/12/18 04:20:59;;;;;;;66.82;21.75;;;;;;;;;;5049820;28;20103;-66
2021/12/18 04:23:24;;;;;;;57.10;21.65;;;;;;;;;;5049866;28;20024;-67
2021/12/18 04:25:49;;;;;;;62.35;21.98;;;;;;;;;;5050024;28;20029;-66
2021/12/18 04:28:15;;;;;;;59.20;21.70;;;;;;;;;;5049678;28;20044;-67
2021/12/18 04:30:40;;;;;;;62.90;21.38;;;;;;;;;;5049235;28;20477;-67
2021/12/18 04:33:05;;;;;;;50.75;16.25;;;;;;;;;;5050044;28;20107;-66
2021/12/18 04:35:30;;;;;;;60.17;21.70;;;;;;;;;;5049994;28;20078;-67
2021/12/18 04:37:55;;;;;;;58.33;18.73;;;;;;;;;;5050482;28;20021;-64
2021/12/18 04:40:26;;;;;;;63.17;21.23;;;;;;;;;;5053843;28;20469;-67
2021/12/18 04:42:51;;;;;;;54.72;19.48;;;;;;;;;;5053959;28;20021;-67
2021/12/18 04:45:17;;;;;;;53.92;20.25;;;;;;;;;;5053613;28;20021;-67
2021/12/18 04:47:42;;;;;;;57.17;20.67;;;;;;;;;;5053344;28;20032;-66
2021/12/18 04:50:07;;;;;;;62.28;21.15;;;;;;;;;;5053268;28;20025;-67
2021/12/18 04:52:32;;;;;;;55.90;18.92;;;;;;;;;;5058906;28;20012;-66
2021/12/18 04:54:58;;;;;;;58.17;20.73;;;;;;;;;;5073492;28;20426;-67
2021/12/18 04:57:23;;;;;;;49.78;19.38;;;;;;;;;;5073092;28;20058;-67
2021/12/18 04:59:48;;;;;;;51.90;20.65;;;;;;;;;;5073424;28;20077;-66
2021/12/18 05:02:18;;;;;;;53.92;18.85;;;;;;;;;;5072216;28;20036;-66
2021/12/18 05:04:43;;;;;;;58.70;20.20;;;;;;;;;;5053388;28;20021;-66
2021/12/18 05:07:10;;;;;;;58.83;20.27;;;;;;;;;;5053243;28;20100;-67
2021/12/18 05:09:36;;;;;;;49.50;19.17;;;;;;;;;;5053118;28;20347;-68
2021/12/18 05:12:01;;;;;;;55.30;19.95;;;;;;;;;;5052932;28;20020;-67
2021/12/18 05:14:26;;;;;;;59.30;19.85;;;;;;;;;;5053039;28;20036;-67
2021/12/18 05:16:52;;;;;;;49.80;19.50;;;;;;;;;;5053223;28;20025;-67
2021/12/18 05:19:17;;;;;;;51.75;15.15;;;;;;;;;;5052423;28;20428;-66
2021/12/18 05:21:42;;;;;;;55.10;19.90;;;;;;;;;;5052903;28;20124;-67
2021/12/18 05:24:07;;;;;;;49.33;17.75;;;;;;;;;;5053323;28;20103;-66
2021/12/18 05:26:32;;;;;;;49.78;17.33;;;;;;;;;;5053392;28;20020;-68
2021/12/18 05:28:58;;;;;;;44.05;14.98;;;;;;;;;;5053289;28;20029;-68
2021/12/18 05:31:23;;;;;;;49.53;18.65;;;;;;;;;;5052417;28;20388;-67
2021/12/18 05:33:52;;;;;;;55.15;16.83;;;;;;;;;;5052951;28;20100;-67
2021/12/18 05:36:33;;;;;;;42.72;18.15;;;;;;;;;;5052386;28;20025;-67
2021/12/18 05:38:59;;;;;;;45.72;18.42;;;;;;;;;;5052702;28;20389;-67
2021/12/18 05:41:25;;;;;;;46.58;17.77;;;;;;;;;;5052204;28;20029;-67
2021/12/18 05:43:50;;;;;;;56.90;18.13;;;;;;;;;;5052632;28;20021;-67
2021/12/18 05:46:15;;;;;;;56.90;18.92;;;;;;;;;;5052596;28;20028;-67
2021/12/18 05:48:40;;;;;;;49.90;18.97;;;;;;;;;;5052420;28;20025;-67
2021/12/18 05:51:06;;;;;;;48.17;16.63;;;;;;;;;;5051108;28;20345;-66
2021/12/18 05:53:31;;;;;;;51.75;18.77;;;;;;;;;;5032604;28;20112;-67
2021/12/18 05:55:57;;;;;;;61.60;20.02;;;;;;;;;;5032613;28;20017;-67
2021/12/18 05:58:22;;;;;;;55.00;19.05;;;;;;;;;;5032363;28;20029;-65
2021/12/18 06:00:47;;;;;;;51.90;19.25;;;;;;;;;;5043324;28;20048;-67
2021/12/18 06:03:12;;;;;;;57.70;19.60;;;;;;;;;;5052166;28;20083;-66
2021/12/18 06:05:37;;;;;;;55.65;18.75;;;;;;;;;;5052460;28;20394;-67
2021/12/18 06:08:05;;;;;;;57.22;17.77;;;;;;;;;;5052203;28;20039;-65
2021/12/18 06:10:33;;;;;;;60.03;19.35;;;;;;;;;;5051830;28;20483;-67
2021/12/18 06:13:00;;;;;;;55.08;19.35;;;;;;;;;;5052288;28;20025;-67
2021/12/18 06:15:25;;;;;;;55.40;19.80;;;;;;;;;;5051950;28;20489;-66
2021/12/18 06:17:53;;;;;;;56.20;16.45;;;;;;;;;;5052111;28;20028;-67
2021/12/18 06:20:18;;;;;;;53.78;18.92;;;;;;;;;;5051324;28;20045;-67
2021/12/18 06:22:43;;;;;;;55.42;20.40;;;;;;;;;;5051894;28;20056;-66
2021/12/18 06:25:08;;;;;;;63.03;19.23;;;;;;;;;;5051569;28;20501;-67
2021/12/18 06:27:33;;;;;;;65.47;19.75;;;;;;;;;;5051473;28;20028;-67
2021/12/18 06:29:59;;;;;;;60.60;20.10;;;;;;;;;;5051632;28;20469;-67
2021/12/18 06:32:24;;;;;;;60.63;18.70;;;;;;;;;;5051291;28;20318;-67
2021/12/18 06:34:49;;;;;;;58.85;19.85;;;;;;;;;;5049978;28;20024;-67
2021/12/18 06:37:14;;;;;;;57.83;19.60;;;;;;;;;;5051301;28;20029;-67
2021/12/18 06:39:39;;;;;;;54.65;16.02;;;;;;;;;;5051633;28;20247;-67
2021/12/18 06:42:05;;;;;;;60.20;18.58;;;;;;;;;;5051001;28;20540;-67
2021/12/18 06:44:30;;;;;;;55.78;18.08;;;;;;;;;;5051912;28;20071;-66
2021/12/18 06:46:56;;;;;;;51.30;17.15;;;;;;;;;;5051654;28;20025;-67
2021/12/18 06:49:21;;;;;;;55.70;18.95;;;;;;;;;;5051040;28;20044;-67
2021/12/18 06:51:46;;;;;;;63.25;18.77;;;;;;;;;;5051306;28;20381;-66
2021/12/18 06:54:12;;;;;;;59.33;17.38;;;;;;;;;;5051493;28;20081;-67
2021/12/18 06:56:37;;;;;;;53.17;18.75;;;;;;;;;;5051352;28;20025;-67
2021/12/18 06:59:02;;;;;;;54.37;16.73;;;;;;;;;;5051155;28;20045;-67
2021/12/18 07:01:27;;;;;;;44.30;14.07;;;;;;;;;;5050589;28;20410;-67
2021/12/18 07:03:52;;;;;;;51.50;16.10;;;;;;;;;;5033253;28;20489;-67
2021/12/18 07:06:18;;;;;;;55.00;18.05;;;;;;;;;;5051171;28;20036;-67
2021/12/18 07:08:43;;;;;;;58.80;15.90;;;;;;;;;;5051161;28;20033;-66
2021/12/18 07:11:08;;;;;;;52.28;19.70;;;;;;;;;;5050653;28;20021;-67
2021/12/18 07:13:33;;;;;;;60.88;19.63;;;;;;;;;;5051147;28;20025;-66
2021/12/18 07:15:59;;;;;;;66.10;19.38;;;;;;;;;;5051125;28;20017;-67
2021/12/18 07:18:24;;;;;;;61.00;19.42;;;;;;;;;;5033000;28;20087;-65
2021/12/18 07:20:51;;;;;;;52.38;17.48;;;;;;;;;;5050075;28;20028;-67
2021/12/18 07:23:16;;;;;;;65.90;19.85;;;;;;;;;;5050908;28;20040;-68
2021/12/18 07:25:42;;;;;;;54.55;18.25;;;;;;;;;;5051045;28;20413;-67
2021/12/18 07:28:07;;;;;;;66.93;21.77;;;;;;;;;;5050616;28;20492;-67
2021/12/18 07:30:32;;;;;;;63.05;18.23;;;;;;;;;;5050459;28;20175;-67
2021/12/18 07:32:57;;;;;;;53.85;19.08;;;;;;;;;;5050882;28;20025;-67
2021/12/18 07:35:23;;;;;;;65.38;20.77;;;;;;;;;;5050401;28;20096;-67
2021/12/18 07:37:48;;;;;;;71.25;19.65;;;;;;;;;;5050787;28;20013;-67
2021/12/18 07:40:14;;;;;;;67.55;19.17;;;;;;;;;;5050410;28;20024;-67
2021/12/18 07:42:40;;;;;;;74.25;21.42;;;;;;;;;;5050419;28;20025;-67
2021/12/18 07:45:05;;;;;;;67.10;19.05;;;;;;;;;;5050301;28;20035;-67
2021/12/18 07:47:31;;;;;;;72.55;21.33;;;;;;;;;;5050389;28;20009;-66
2021/12/18 07:49:56;;;;;;;60.03;20.05;;;;;;;;;;5050046;28;20469;-67
2021/12/18 07:52:21;;;;;;;70.90;20.17;;;;;;;;;;5050044;28;20073;-67
2021/12/18 07:54:47;;;;;;;73.50;20.52;;;;;;;;;;5050520;28;20462;-68
2021/12/18 07:57:12;;;;;;;72.85;20.65;;;;;;;;;;5050221;28;20668;-67
2021/12/18 07:59:37;;;;;;;50.83;16.33;;;;;;;;;;5050243;28;20025;-67
2021/12/18 08:02:04;;;;;;;59.97;19.08;;;;;;;;;;5030658;28;20477;-66
2021/12/18 08:04:30;;;;;;;72.22;19.45;;;;;;;;;;5050449;28;20051;-67
2021/12/18 08:06:55;;;;;;;62.85;18.13;;;;;;;;;;5050343;28;20056;-66
2021/12/18 08:09:20;;;;;;;71.28;20.58;;;;;;;;;;5050218;28;20033;-67
2021/12/18 08:11:45;;;;;;;46.58;16.27;;;;;;;;;;5049898;28;20025;-67
2021/12/18 08:14:11;;;;;;;74.28;19.17;;;;;;;;;;5052386;28;20013;-67
2021/12/18 08:16:36;;;;;;;86.72;23.42;;;;;;;;;;5054454;28;20017;-67
2021/12/18 08:19:01;;;;;;;74.80;19.30;;;;;;;;;;5054649;28;20017;-67
2021/12/18 08:21:26;;;;;;;81.68;22.38;;;;;;;;;;5054029;28;20074;-67
2021/12/18 08:23:51;;;;;;;91.20;22.13;;;;;;;;;;5054677;28;20473;-67
2021/12/18 08:26:17;;;;;;;93.90;24.40;;;;;;;;;;5053970;28;20542;-68
2021/12/18 08:28:42;;;;;;;45.47;14.75;;;;;;;;;;5054398;28;20032;-67
2021/12/18 08:31:07;;;;;;;49.17;19.17;;;;;;;;;;5053858;28;20032;-68
2021/12/18 08:33:32;;;;;;;103.75;27.48;;;;;;;;;;5054154;28;20071;-67
2021/12/18 08:35:58;;;;;;;102.03;24.63;;;;;;;;;;5054070;28;20021;-67
2021/12/18 08:38:23;;;;;;;95.13;23.98;;;;;;;;;;5053692;28;20059;-67
2021/12/18 08:40:50;;;;;;;87.93;25.77;;;;;;;;;;5053621;28;20032;-67
2021/12/18 08:43:15;;;;;;;127.30;28.27;;;;;;;;;;5054009;28;20017;-67
2021/12/18 08:45:40;;;;;;;107.10;25.00;;;;;;;;;;5048040;28;20159;-67
2021/12/18 08:48:05;;;;;;;86.25;25.40;;;;;;;;;;5033897;28;20171;-67
2021/12/18 08:50:31;;;;;;;109.30;27.10;;;;;;;;;;5045339;28;20055;-67
2021/12/18 08:52:56;;;;;;;81.97;22.60;;;;;;;;;;5053517;28;20017;-66
2021/12/18 08:55:22;;;;;;;105.90;27.63;;;;;;;;;;5053345;28;20021;-67
2021/12/18 08:57:48;;;;;;;79.13;20.90;;;;;;;;;;5053505;28;20032;-67
2021/12/18 09:00:16;;;;;;;93.72;23.30;;;;;;;;;;5053438;28;20029;-65
2021/12/18 09:02:42;;;;;;;70.40;19.27;;;;;;;;;;5053669;28;20417;-67
2021/12/18 09:05:07;;;;;;;103.10;27.00;;;;;;;;;;5053803;28;20017;-67
2021/12/18 09:07:33;;;;;;;75.80;22.30;;;;;;;;;;5051485;28;20029;-67
2021/12/18 09:09:58;;;;;;;63.78;19.77;;;;;;;;;;5061635;28;20055;-67
2021/12/18 09:12:25;;;;;;;65.38;19.33;;;;;;;;;;5072876;28;20028;-68
2021/12/18 09:14:50;;;;;;;77.18;20.35;;;;;;;;;;5073228;28;20092;-66
2021/12/18 09:17:15;;;;;;;85.45;23.40;;;;;;;;;;5064038;28;20100;-67
2021/12/18 09:19:40;;;;;;;78.68;19.50;;;;;;;;;;5051752;28;20047;-67
2021/12/18 09:22:06;;;;;;;94.03;23.95;;;;;;;;;;5052511;28;20524;-67
2021/12/18 09:24:31;;;;;;;63.53;17.60;;;;;;;;;;5051440;28;20037;-67
2021/12/18 09:26:57;;;;;;;92.07;22.77;;;;;;;;;;5052993;28;20025;-68
2021/12/18 09:29:22;;;;;;;87.38;21.02;;;;;;;;;;5052723;28;20025;-67
2021/12/18 09:31:47;;;;;;;75.82;20.02;;;;;;;;;;5052692;28;20112;-68
2021/12/18 09:34:12;;;;;;;97.28;23.67;;;;;;;;;;5052994;28;20025;-67
2021/12/18 09:36:37;;;;;;;73.78;19.60;;;;;;;;;;5052574;28;20017;-68
2021/12/18 09:39:03;;;;;;;86.32;22.90;;;;;;;;;;5052846;28;20048;-68
2021/12/18 09:41:29;;;;;;;84.75;23.85;;;;;;;;;;5052495;28;20462;-66
2021/12/18 09:43:54;;;;;;;111.68;24.90;;;;;;;;;;5053000;28;20025;-68
2021/12/18 09:46:19;;;;;;;87.68;21.52;;;;;;;;;;5052815;28;20025;-67
2021/12/18 09:48:44;;;;;;;78.15;22.30;;;;;;;;;;5052440;28;20447;-68
2021/12/18 09:51:18;;;;;;;72.63;21.65;;;;;;;;;;5052648;28;20024;-68
2021/12/18 09:53:43;;;;;;;81.22;21.80;;;;;;;;;;5052697;28;20052;-68
2021/12/18 09:56:09;;;;;;;71.13;20.50;;;;;;;;;;5034702;28;20485;-68
2021/12/18 09:58:34;;;;;;;49.38;15.70;;;;;;;;;;5052082;28;20036;-68
2021/12/18 10:00:59;;;;;;;66.75;18.52;;;;;;;;;;5051919;28;20074;-67
2021/12/18 10:03:43;;;;;;;66.82;17.60;;;;;;;;;;5052276;28;20064;-68
2021/12/18 10:06:34;;;;;;;83.25;21.73;;;;;;;;;;5052403;28;20116;-67
2021/12/18 10:08:59;;;;;;;57.45;15.05;;;;;;;;;;5034429;28;20060;-66
2021/12/18 10:11:24;;;;;;;41.92;14.05;;;;;;;;;;5051801;28;20053;-68
2021/12/18 10:13:51;;;;;;;63.38;16.08;;;;;;;;;;5052347;28;20052;-67
2021/12/18 10:16:16;;;;;;;74.45;22.50;;;;;;;;;;5051896;28;20508;-68
2021/12/18 10:18:41;;;;;;;61.17;16.13;;;;;;;;;;5051875;28;20025;-67
2021/12/18 10:21:08;;;;;;;47.95;13.68;;;;;;;;;;5051708;28;20464;-68
2021/12/18 10:23:34;;;;;;;61.03;17.77;;;;;;;;;;5052088;28;20029;-66
2021/12/18 10:25:59;;;;;;;54.97;16.60;;;;;;;;;;5052151;28;20112;-68
2021/12/18 10:28:24;;;;;;;70.30;20.52;;;;;;;;;;5051971;28;20051;-67
2021/12/18 10:30:53;;;;;;;78.43;19.92;;;;;;;;;;5051833;28;20027;-68
2021/12/18 10:33:19;;;;;;;59.03;16.98;;;;;;;;;;5051631;28;20024;-67
2021/12/18 10:35:52;;;;;;;79.75;22.70;;;;;;;;;;5051398;28;20017;-67
2021/12/18 10:38:37;;;;;;;58.97;18.20;;;;;;;;;;5051501;28;20009;-68
2021/12/18 10:41:17;;;;;;;83.97;23.73;;;;;;;;;;5051202;28;20108;-67
2021/12/18 10:43:53;;;;;;;80.70;21.73;;;;;;;;;;5051612;28;20051;-66
2021/12/18 10:46:19;;;;;;;59.35;17.73;;;;;;;;;;5051879;28;20516;-68
2021/12/18 10:48:53;;;;;;;49.28;13.60;;;;;;;;;;5051241;28;20029;-68
2021/12/18 10:51:21;;;;;;;71.72;19.95;;;;;;;;;;5050949;28;20048;-68
2021/12/18 10:53:46;;;;;;;81.32;23.80;;;;;;;;;;5051098;28;20028;-69
2021/12/18 10:56:11;;;;;;;54.78;18.55;;;;;;;;;;5051211;28;20385;-68
2021/12/18 10:58:37;;;;;;;66.05;20.50;;;;;;;;;;5050987;28;20029;-68
2021/12/18 11:01:04;;;;;;;49.70;15.05;;;;;;;;;;5050880;28;20215;-68
2021/12/18 11:03:38;;;;;;;64.68;19.85;;;;;;;;;;5050858;28;20060;-67
2021/12/18 11:06:11;;;;;;;54.83;16.73;;;;;;;;;;5051035;28;20029;-68
2021/12/18 11:08:56;;;;;;;50.00;15.95;;;;;;;;;;5051116;28;20025;-68
2021/12/18 11:14:01;;;;;;;64.00;19.45;;;;;;;;;;5051349;28;20036;-68
2021/12/18 11:16:28;;;;;;;38.17;12.18;;;;;;;;;;5051143;28;20111;-68
2021/12/18 11:18:54;;;;;;;91.82;23.73;;;;;;;;;;5050958;28;20029;-69
2021/12/18 11:21:19;;;;;;;59.03;19.48;;;;;;;;;;5050633;28;20032;-68
2021/12/18 11:23:50;;;;;;;71.18;20.75;;;;;;;;;;5050921;28;20381;-67
2021/12/18 11:26:16;;;;;;;54.78;18.52;;;;;;;;;;5050697;28;20028;-68
2021/12/18 11:28:47;;;;;;;49.20;17.48;;;;;;;;;;5050755;28;20021;-68
2021/12/18 11:31:12;;;;;;;76.50;24.58;;;;;;;;;;5050389;28;20032;-68
2021/12/18 11:33:38;;;;;;;76.78;22.92;;;;;;;;;;5050437;28;20017;-68
2021/12/18 11:36:04;;;;;;;81.63;21.40;;;;;;;;;;5050540;28;20033;-69
2021/12/18 11:38:30;;;;;;;71.90;22.50;;;;;;;;;;5050188;28;20017;-68
2021/12/18 11:40:55;;;;;;;84.53;23.35;;;;;;;;;;5050322;28;20024;-69
2021/12/18 11:43:35;;;;;;;78.88;23.85;;;;;;;;;;5050307;28;20021;-68
2021/12/18 11:46:00;;;;;;;61.00;19.80;;;;;;;;;;5050520;28;20079;-68
2021/12/18 11:48:26;;;;;;;74.75;22.40;;;;;;;;;;5049404;28;20024;-68
2021/12/18 11:50:51;;;;;;;80.78;24.48;;;;;;;;;;5049872;28;20025;-68
2021/12/18 11:53:20;;;;;;;84.75;25.52;;;;;;;;;;5050273;28;20497;-68
2021/12/18 11:55:48;;;;;;;83.65;24.17;;;;;;;;;;5050476;28;20489;-67
2021/12/18 11:58:14;;;;;;;80.65;24.05;;;;;;;;;;5050106;28;20033;-67
2021/12/18 12:00:46;;;;;;;86.80;24.20;;;;;;;;;;5050039;28;20028;-69
2021/12/18 12:03:13;;;;;;;69.30;21.38;;;;;;;;;;5048966;28;20021;-68
2021/12/18 12:05:41;;;;;;;79.43;23.80;;;;;;;;;;5050273;28;20561;-68
2021/12/18 12:08:25;;;;;;;101.63;25.60;;;;;;;;;;5050256;28;20039;-68
2021/12/18 12:11:15;;;;;;;99.45;27.65;;;;;;;;;;5049847;28;20082;-69
2021/12/18 12:13:56;;;;;;;64.63;19.65;;;;;;;;;;5050070;28;20389;-69
2021/12/18 12:16:39;;;;;;;92.13;26.17;;;;;;;;;;5049544;28;20108;-68
2021/12/18 12:19:05;;;;;;;100.55;25.67;;;;;;;;;;5050089;28;20627;-69
2021/12/18 12:21:41;;;;;;;80.93;24.45;;;;;;;;;;5049736;28;20021;-69
2021/12/18 12:24:07;;;;;;;99.40;25.75;;;;;;;;;;5050136;28;20043;-69
2021/12/18 12:26:32;;;;;;;87.95;24.13;;;;;;;;;;5050029;28;20462;-68
2021/12/18 12:28:58;;;;;;;89.88;25.33;;;;;;;;;;5049996;28;20032;-68
2021/12/18 12:31:23;;;;;;;76.25;24.23;;;;;;;;;;5049258;28;20025;-69
2021/12/18 12:33:50;;;;;;;71.22;19.38;;;;;;;;;;5049460;28;20446;-67
2021/12/18 12:36:25;;;;;;;89.47;25.17;;;;;;;;;;5050035;28;20021;-69
2021/12/18 12:38:58;;;;;;;62.63;18.35;;;;;;;;;;5049624;28;20031;-68
2021/12/18 12:41:25;;;;;;;89.85;24.10;;;;;;;;;;5049820;28;20020;-69
2021/12/18 12:43:51;;;;;;;95.95;26.15;;;;;;;;;;5050342;28;20044;-69
2021/12/18 12:46:18;;;;;;;106.07;27.00;;;;;;;;;;5049966;28;20465;-69
2021/12/18 12:49:18;;;;;;;103.50;28.88;;;;;;;;;;5049072;28;20029;-69
2021/12/18 12:51:59;;;;;;;110.18;25.95;;;;;;;;;;5016255;28;20188;-68
2021/12/18 12:54:42;;;;;;;91.47;25.20;;;;;;;;;;5049837;28;20017;-68
2021/12/18 12:57:22;;;;;;;84.72;27.70;;;;;;;;;;5048597;28;20047;-68
2021/12/18 12:59:52;;;;;;;97.88;26.30;;;;;;;;;;5051408;28;20029;-68
2021/12/18 13:02:17;;;;;;;89.30;24.63;;;;;;;;;;5053396;28;20485;-68
2021/12/18 13:04:42;;;;;;;105.32;27.80;;;;;;;;;;5053191;28;20075;-69
2021/12/18 13:07:10;;;;;;;88.70;25.52;;;;;;;;;;5053273;28;20024;-67
2021/12/18 13:09:42;;;;;;;103.88;27.10;;;;;;;;;;5053157;28;20028;-68
2021/12/18 13:12:08;;;;;;;96.30;27.55;;;;;;;;;;5052889;28;20017;-67
2021/12/18 13:14:37;;;;;;;94.95;27.05;;;;;;;;;;5052860;28;20028;-69
2021/12/18 13:17:15;;;;;;;76.35;23.15;;;;;;;;;;5052811;28;20521;-68
2021/12/18 13:19:50;;;;;;;93.80;25.45;;;;;;;;;;5052772;28;20035;-67
2021/12/18 13:22:16;;;;;;;107.45;26.30;;;;;;;;;;5052856;28;20013;-68
2021/12/18 13:24:41;;;;;;;98.10;25.27;;;;;;;;;;5053152;28;20029;-69
2021/12/18 13:27:09;;;;;;;89.60;25.00;;;;;;;;;;5053139;28;20051;-69
2021/12/18 13:29:34;;;;;;;86.40;23.52;;;;;;;;;;5052893;28;20040;-68
2021/12/18 13:32:00;;;;;;;92.80;26.17;;;;;;;;;;5052230;28;20021;-68
2021/12/18 13:34:26;;;;;;;79.32;24.80;;;;;;;;;;5052646;28;20017;-68
2021/12/18 13:36:59;;;;;;;109.53;27.15;;;;;;;;;;5052855;28;20100;-68
2021/12/18 13:39:32;;;;;;;83.35;23.25;;;;;;;;;;5052686;28;20017;-68
2021/12/18 13:42:05;;;;;;;88.10;24.67;;;;;;;;;;5052414;28;20020;-68
2021/12/18 13:44:57;;;;;;;83.40;23.25;;;;;;;;;;5052233;28;20044;-69
2021/12/18 13:47:30;;;;;;;80.60;23.45;;;;;;;;;;5030155;28;20037;-67
2021/12/18 13:50:11;;;;;;;87.78;25.70;;;;;;;;;;5032708;28;20021;-68
2021/12/18 13:52:38;;;;;;;92.25;26.45;;;;;;;;;;5032528;28;20390;-68
2021/12/18 13:55:20;;;;;;;76.65;25.80;;;;;;;;;;5032490;28;20025;-67
2021/12/18 13:58:03;;;;;;;80.72;24.88;;;;;;;;;;5032278;28;20543;-68
2021/12/18 14:00:43;;;;;;;98.47;27.10;;;;;;;;;;5032069;28;20022;-68
2021/12/18 14:03:15;;;;;;;90.30;24.25;;;;;;;;;;5048585;28;20362;-69
2021/12/18 14:05:41;;;;;;;96.82;26.10;;;;;;;;;;5052583;28;20021;-69
2021/12/18 14:08:06;;;;;;;100.28;27.67;;;;;;;;;;5052594;28;20488;-67
2021/12/18 14:10:33;;;;;;;99.53;28.25;;;;;;;;;;5051480;28;20485;-68
2021/12/18 14:12:58;;;;;;;93.50;26.75;;;;;;;;;;5052141;28;20450;-68
2021/12/18 14:15:24;;;;;;;85.43;26.38;;;;;;;;;;5052146;28;20096;-68
2021/12/18 14:17:49;;;;;;;85.28;24.90;;;;;;;;;;5051509;28;20064;-68
2021/12/18 14:20:14;;;;;;;79.32;23.88;;;;;;;;;;5051750;28;20382;-69
2021/12/18 14:22:40;;;;;;;82.35;25.88;;;;;;;;;;5051364;28;20123;-69
2021/12/18 14:25:11;;;;;;;95.85;28.67;;;;;;;;;;5050939;28;20052;-68
2021/12/18 14:27:45;;;;;;;80.55;24.42;;;;;;;;;;5051248;28;20024;-67
2021/12/18 14:30:19;;;;;;;82.13;23.60;;;;;;;;;;5040819;28;20028;-67
2021/12/18 14:32:45;;;;;;;75.03;24.73;;;;;;;;;;5047765;28;20566;-67
2021/12/18 14:35:12;;;;;;;90.53;25.77;;;;;;;;;;5050939;28;20130;-69
2021/12/18 14:37:50;;;;;;;83.10;24.05;;;;;;;;;;5037669;28;20032;-69
2021/12/18 14:40:17;;;;;;;88.43;26.08;;;;;;;;;;5033463;28;20017;-67
2021/12/18 14:42:54;;;;;;;80.22;24.58;;;;;;;;;;5051501;28;20021;-69
2021/12/18 14:45:21;;;;;;;90.72;26.42;;;;;;;;;;5051657;28;20029;-68
2021/12/18 14:47:47;;;;;;;85.38;25.38;;;;;;;;;;5051445;28;20047;-69
2021/12/18 14:50:13;;;;;;;84.78;27.27;;;;;;;;;;5051423;28;20021;-69
2021/12/18 14:53:11;;;;;;;75.60;24.45;;;;;;;;;;5051562;28;20021;-68
2021/12/18 14:55:42;;;;;;;79.88;23.75;;;;;;;;;;5029443;28;20048;-69
2021/12/18 14:58:10;;;;;;;70.63;22.63;;;;;;;;;;5051230;28;20025;-67